createdAt,value
2019-03-31T00:01:08.129Z,997.52
2019-03-31T00:02:00.828Z,997.55
2019-03-31T00:02:59.825Z,997.52
2019-03-31T00:03:59.810Z,997.51
2019-03-31T00:04:59.780Z,997.49
2019-03-31T00:05:59.800Z,997.47
2019-03-31T00:06:59.798Z,997.52
2019-03-31T00:07:59.779Z,997.53
2019-03-31T00:08:59.768Z,997.56
2019-03-31T00:09:59.720Z,997.54
2019-03-31T00:11:00.783Z,997.57
2019-03-31T00:11:59.728Z,997.55
2019-03-31T00:12:59.700Z,997.55
2019-03-31T00:13:59.688Z,997.56
2019-03-31T00:14:59.667Z,997.52
2019-03-31T00:15:59.686Z,997.54
2019-03-31T00:16:59.681Z,997.55
2019-03-31T00:17:59.660Z,997.53
2019-03-31T00:18:59.650Z,997.53
2019-03-31T00:19:59.635Z,997.55
2019-03-31T00:20:59.618Z,997.60
2019-03-31T00:21:59.619Z,997.56
2019-03-31T00:22:59.611Z,997.61
2019-03-31T00:23:59.580Z,997.60
2019-03-31T00:24:59.557Z,997.58
2019-03-31T00:25:59.564Z,997.61
2019-03-31T00:26:59.602Z,997.60
2019-03-31T00:27:59.541Z,997.61
2019-03-31T00:28:59.516Z,997.62
2019-03-31T00:29:59.543Z,997.67
2019-03-31T00:30:59.504Z,997.66
2019-03-31T00:31:59.515Z,997.59
2019-03-31T00:32:59.479Z,997.61
2019-03-31T00:33:59.474Z,997.62
2019-03-31T00:34:59.446Z,997.61
2019-03-31T00:35:59.459Z,997.65
2019-03-31T00:36:59.473Z,997.61
2019-03-31T00:37:59.435Z,997.60
2019-03-31T00:38:59.411Z,997.61
2019-03-31T00:39:59.401Z,997.60
2019-03-31T00:40:59.406Z,997.63
2019-03-31T00:41:59.401Z,997.60
2019-03-31T00:42:59.400Z,997.64
2019-03-31T00:43:59.346Z,997.60
2019-03-31T00:44:59.350Z,997.58
2019-03-31T00:45:59.355Z,997.59
2019-03-31T00:47:02.045Z,997.67
2019-03-31T00:47:59.328Z,997.62
2019-03-31T00:48:59.316Z,997.59
2019-03-31T00:49:59.297Z,997.54
2019-03-31T00:50:59.283Z,997.53
2019-03-31T00:51:59.290Z,997.55
2019-03-31T00:52:59.281Z,997.50
2019-03-31T00:53:59.246Z,997.54
2019-03-31T00:54:59.253Z,997.54
2019-03-31T00:55:59.233Z,997.61
2019-03-31T00:56:59.253Z,997.62
2019-03-31T00:57:59.208Z,997.54
2019-03-31T00:58:59.211Z,997.57
2019-03-31T00:59:59.174Z,997.54
2019-03-31T01:00:59.183Z,997.59
2019-03-31T01:01:59.177Z,997.59
2019-03-31T01:02:59.132Z,997.62
2019-03-31T01:03:59.135Z,997.61
2019-03-31T01:04:59.136Z,997.64
2019-03-31T01:05:59.122Z,997.56
2019-03-31T01:06:59.143Z,997.61
2019-03-31T01:07:59.105Z,997.59
2019-03-31T01:08:59.084Z,997.58
2019-03-31T01:09:59.076Z,997.56
2019-03-31T01:10:59.064Z,997.56
2019-03-31T01:11:59.132Z,997.60
2019-03-31T01:12:59.071Z,997.56
2019-03-31T01:13:59.032Z,997.55
2019-03-31T01:14:59.022Z,997.55
2019-03-31T01:15:58.998Z,997.54
2019-03-31T01:16:59.024Z,997.53
2019-03-31T01:17:59.002Z,997.51
2019-03-31T01:18:58.967Z,997.53
2019-03-31T01:19:58.964Z,997.49
2019-03-31T01:20:58.932Z,997.52
2019-03-31T01:21:58.939Z,997.47
2019-03-31T01:22:58.936Z,997.50
2019-03-31T01:23:58.908Z,997.47
2019-03-31T01:24:58.898Z,997.45
2019-03-31T01:26:00.462Z,997.44
2019-03-31T01:26:58.888Z,997.48
2019-03-31T01:27:58.915Z,997.47
2019-03-31T01:28:58.866Z,997.45
2019-03-31T01:29:58.839Z,997.46
2019-03-31T01:30:58.839Z,997.46
2019-03-31T01:31:58.859Z,997.42
2019-03-31T01:32:58.843Z,997.44
2019-03-31T01:33:58.808Z,997.41
2019-03-31T01:34:58.790Z,997.45
2019-03-31T01:35:58.807Z,997.42
2019-03-31T01:36:58.769Z,997.41
2019-03-31T01:37:58.816Z,997.43
2019-03-31T01:38:58.758Z,997.40
2019-03-31T01:39:58.733Z,997.34
2019-03-31T01:40:58.728Z,997.41
2019-03-31T01:41:58.752Z,997.38
2019-03-31T01:42:58.730Z,997.43
2019-03-31T01:43:58.705Z,997.41
2019-03-31T01:44:58.706Z,997.42
2019-03-31T01:45:58.684Z,997.46
2019-03-31T01:46:58.655Z,997.41
2019-03-31T01:47:58.696Z,997.41
2019-03-31T01:48:58.646Z,997.41
2019-03-31T01:49:58.649Z,997.38
2019-03-31T01:50:58.644Z,997.37
2019-03-31T01:51:58.604Z,997.43
2019-03-31T01:52:58.618Z,997.44
2019-03-31T01:53:58.577Z,997.45
2019-03-31T01:54:58.579Z,997.38
2019-03-31T01:55:58.557Z,997.33
2019-03-31T01:56:58.561Z,997.36
2019-03-31T01:57:58.579Z,997.40
2019-03-31T01:58:58.576Z,997.35
2019-03-31T01:59:58.541Z,997.36
2019-03-31T02:00:58.507Z,997.32
2019-03-31T02:02:04.434Z,997.38
2019-03-31T02:02:59.501Z,997.33
2019-03-31T02:03:58.480Z,997.29
2019-03-31T02:04:58.466Z,997.30
2019-03-31T02:05:58.455Z,997.32
2019-03-31T02:06:58.436Z,997.33
2019-03-31T02:07:58.456Z,997.30
2019-03-31T02:08:58.428Z,997.27
2019-03-31T02:09:58.425Z,997.31
2019-03-31T02:10:58.415Z,997.36
2019-03-31T02:11:58.400Z,997.31
2019-03-31T02:12:58.400Z,997.28
2019-03-31T02:13:58.357Z,997.29
2019-03-31T02:14:58.360Z,997.26
2019-03-31T02:15:58.341Z,997.28
2019-03-31T02:16:58.328Z,997.26
2019-03-31T02:17:58.362Z,997.26
2019-03-31T02:18:58.309Z,997.33
2019-03-31T02:19:58.311Z,997.32
2019-03-31T02:20:58.302Z,997.33
2019-03-31T02:21:58.274Z,997.33
2019-03-31T02:22:58.283Z,997.26
2019-03-31T02:23:58.264Z,997.34
2019-03-31T02:24:58.246Z,997.25
2019-03-31T02:25:58.222Z,997.32
2019-03-31T02:26:58.229Z,997.28
2019-03-31T02:27:58.232Z,997.28
2019-03-31T02:28:58.208Z,997.28
2019-03-31T02:29:58.203Z,997.26
2019-03-31T02:30:58.179Z,997.31
2019-03-31T02:31:58.194Z,997.25
2019-03-31T02:32:58.171Z,997.24
2019-03-31T02:33:58.145Z,997.27
2019-03-31T02:34:58.155Z,997.28
2019-03-31T02:35:58.143Z,997.27
2019-03-31T02:36:58.117Z,997.28
2019-03-31T02:37:58.135Z,997.25
2019-03-31T02:38:58.090Z,997.24
2019-03-31T02:39:58.084Z,997.21
2019-03-31T02:40:58.081Z,997.25
2019-03-31T02:41:58.054Z,997.23
2019-03-31T02:42:58.092Z,997.20
2019-03-31T02:43:58.042Z,997.22
2019-03-31T02:44:58.037Z,997.19
2019-03-31T02:45:58.014Z,997.21
2019-03-31T02:46:58.004Z,997.19
2019-03-31T02:47:58.025Z,997.25
2019-03-31T02:48:58.014Z,997.21
2019-03-31T02:49:57.964Z,997.15
2019-03-31T02:50:57.972Z,997.17
2019-03-31T02:51:57.974Z,997.16
2019-03-31T02:52:57.931Z,997.19
2019-03-31T02:53:57.962Z,997.21
2019-03-31T02:54:57.924Z,997.18
2019-03-31T02:55:57.930Z,997.25
2019-03-31T02:56:57.895Z,997.18
2019-03-31T02:57:57.894Z,997.19
2019-03-31T02:58:57.904Z,997.19
2019-03-31T02:59:57.848Z,997.19
2019-03-31T03:00:57.835Z,997.18
2019-03-31T03:01:57.836Z,997.15
2019-03-31T03:02:57.854Z,997.18
2019-03-31T03:03:57.834Z,997.18
2019-03-31T03:04:57.823Z,997.12
2019-03-31T03:05:57.856Z,997.17
2019-03-31T03:06:57.793Z,997.21
2019-03-31T03:07:57.781Z,997.17
2019-03-31T03:08:57.794Z,997.19
2019-03-31T03:09:57.754Z,997.11
2019-03-31T03:10:57.745Z,997.15
2019-03-31T03:11:57.720Z,997.18
2019-03-31T03:12:57.729Z,997.19
2019-03-31T03:13:57.744Z,997.16
2019-03-31T03:14:57.689Z,997.21
2019-03-31T03:15:57.700Z,997.16
2019-03-31T03:16:57.703Z,997.16
2019-03-31T03:17:57.838Z,997.15
2019-03-31T03:18:57.697Z,997.16
2019-03-31T03:19:57.666Z,997.14
2019-03-31T03:20:57.636Z,997.14
2019-03-31T03:21:57.649Z,997.15
2019-03-31T03:22:57.619Z,997.16
2019-03-31T03:23:57.694Z,997.18
2019-03-31T03:24:57.590Z,997.16
2019-03-31T03:25:57.575Z,997.17
2019-03-31T03:26:57.581Z,997.27
2019-03-31T03:27:57.584Z,997.21
2019-03-31T03:28:57.562Z,997.27
2019-03-31T03:29:57.538Z,997.31
2019-03-31T03:30:57.737Z,997.33
2019-03-31T03:31:57.523Z,997.36
2019-03-31T03:33:15.133Z,997.35
2019-03-31T03:33:58.549Z,997.33
2019-03-31T03:34:57.486Z,997.36
2019-03-31T03:35:57.474Z,997.36
2019-03-31T03:36:57.472Z,997.35
2019-03-31T03:37:57.453Z,997.40
2019-03-31T03:38:57.457Z,997.41
2019-03-31T03:39:57.435Z,997.41
2019-03-31T03:40:57.412Z,997.41
2019-03-31T03:41:57.386Z,997.44
2019-03-31T03:42:57.396Z,997.40
2019-03-31T03:44:02.107Z,997.41
2019-03-31T03:44:58.383Z,997.41
2019-03-31T03:45:57.352Z,997.44
2019-03-31T03:46:57.362Z,997.47
2019-03-31T03:47:57.349Z,997.53
2019-03-31T03:48:57.350Z,997.50
2019-03-31T03:49:57.352Z,997.51
2019-03-31T03:50:57.314Z,997.52
2019-03-31T03:51:57.282Z,997.52
2019-03-31T03:52:57.281Z,997.51
2019-03-31T03:53:57.282Z,997.58
2019-03-31T03:54:57.281Z,997.50
2019-03-31T03:55:57.243Z,997.53
2019-03-31T03:56:57.232Z,997.53
2019-03-31T03:57:57.238Z,997.55
2019-03-31T03:58:57.217Z,997.54
2019-03-31T03:59:57.240Z,997.50
2019-03-31T04:00:57.206Z,997.60
2019-03-31T04:01:57.193Z,997.55
2019-03-31T04:02:57.179Z,997.57
2019-03-31T04:03:57.168Z,997.55
2019-03-31T04:04:57.173Z,997.56
2019-03-31T04:05:57.132Z,997.60
2019-03-31T04:06:57.148Z,997.56
2019-03-31T04:07:57.125Z,997.55
2019-03-31T04:08:57.118Z,997.54
2019-03-31T04:09:57.138Z,997.50
2019-03-31T04:10:57.119Z,997.46
2019-03-31T04:11:57.080Z,997.46
2019-03-31T04:12:57.074Z,997.43
2019-03-31T04:13:57.051Z,997.46
2019-03-31T04:14:57.084Z,997.44
2019-03-31T04:15:57.024Z,997.46
2019-03-31T04:16:57.047Z,997.40
2019-03-31T04:17:57.012Z,997.35
2019-03-31T04:18:57.026Z,997.41
2019-03-31T04:19:57.030Z,997.38
2019-03-31T04:20:56.975Z,997.39
2019-03-31T04:21:56.973Z,997.37
2019-03-31T04:22:56.959Z,997.39
2019-03-31T04:23:56.969Z,997.40
2019-03-31T04:24:56.965Z,997.40
2019-03-31T04:25:56.929Z,997.49
2019-03-31T04:26:56.915Z,997.41
2019-03-31T04:27:56.935Z,997.41
2019-03-31T04:28:56.875Z,997.49
2019-03-31T04:29:56.909Z,997.48
2019-03-31T04:30:56.865Z,997.52
2019-03-31T04:31:56.876Z,997.50
2019-03-31T04:32:56.845Z,997.52
2019-03-31T04:33:56.853Z,997.57
2019-03-31T04:34:56.859Z,997.54
2019-03-31T04:35:56.824Z,997.55
2019-03-31T04:36:56.808Z,997.56
2019-03-31T04:37:56.785Z,997.53
2019-03-31T04:39:00.079Z,997.55
2019-03-31T04:39:56.795Z,997.56
2019-03-31T04:40:56.790Z,997.55
2019-03-31T04:41:56.767Z,997.52
2019-03-31T04:42:56.731Z,997.57
2019-03-31T04:43:56.721Z,997.61
2019-03-31T04:44:56.761Z,997.60
2019-03-31T04:45:56.706Z,997.62
2019-03-31T04:46:56.685Z,997.60
2019-03-31T04:47:56.722Z,997.62
2019-03-31T04:48:56.679Z,997.62
2019-03-31T04:49:56.666Z,997.63
2019-03-31T04:50:56.660Z,997.68
2019-03-31T04:51:56.636Z,997.66
2019-03-31T04:52:56.687Z,997.66
2019-03-31T04:53:56.626Z,997.73
2019-03-31T04:54:56.641Z,997.77
2019-03-31T04:55:56.619Z,997.71
2019-03-31T04:56:56.596Z,997.82
2019-03-31T04:57:56.595Z,997.86
2019-03-31T04:58:56.610Z,997.90
2019-03-31T04:59:56.557Z,997.90
2019-03-31T05:00:56.564Z,997.87
2019-03-31T05:01:56.541Z,997.87
2019-03-31T05:02:56.580Z,997.87
2019-03-31T05:04:04.431Z,997.84
2019-03-31T05:04:57.519Z,997.87
2019-03-31T05:05:56.560Z,997.88
2019-03-31T05:06:56.497Z,997.90
2019-03-31T05:07:56.511Z,997.91
2019-03-31T05:08:56.505Z,997.90
2019-03-31T05:09:56.452Z,997.93
2019-03-31T05:10:56.442Z,997.87
2019-03-31T05:11:56.440Z,997.94
2019-03-31T05:12:56.452Z,997.89
2019-03-31T05:13:56.451Z,997.93
2019-03-31T05:14:56.396Z,997.85
2019-03-31T05:15:56.405Z,997.85
2019-03-31T05:16:56.382Z,997.85
2019-03-31T05:17:56.369Z,997.87
2019-03-31T05:18:56.392Z,997.83
2019-03-31T05:19:56.345Z,997.93
2019-03-31T05:20:56.328Z,997.83
2019-03-31T05:21:56.327Z,997.90
2019-03-31T05:22:56.298Z,997.88
2019-03-31T05:23:56.318Z,997.92
2019-03-31T05:24:56.279Z,997.94
2019-03-31T05:25:56.292Z,997.95
2019-03-31T05:26:56.276Z,997.98
2019-03-31T05:27:56.263Z,997.99
2019-03-31T05:28:56.280Z,998.04
2019-03-31T05:29:56.232Z,998.05
2019-03-31T05:30:56.222Z,997.97
2019-03-31T05:31:56.218Z,998.01
2019-03-31T05:32:56.188Z,998.07
2019-03-31T05:33:56.213Z,998.04
2019-03-31T05:34:56.191Z,998.07
2019-03-31T05:35:56.182Z,998.05
2019-03-31T05:36:56.158Z,998.10
2019-03-31T05:37:56.184Z,998.13
2019-03-31T05:38:56.158Z,998.16
2019-03-31T05:39:56.133Z,998.13
2019-03-31T05:40:56.178Z,998.18
2019-03-31T05:41:56.127Z,998.22
2019-03-31T05:42:56.102Z,998.11
2019-03-31T05:44:05.674Z,998.18
2019-03-31T05:44:57.089Z,998.07
2019-03-31T05:45:56.072Z,998.10
2019-03-31T05:46:56.074Z,998.10
2019-03-31T05:47:56.030Z,998.12
2019-03-31T05:48:56.056Z,998.08
2019-03-31T05:49:56.045Z,998.15
2019-03-31T05:50:56.018Z,998.16
2019-03-31T05:51:56.007Z,998.15
2019-03-31T05:52:55.984Z,998.14
2019-03-31T05:53:56.006Z,998.17
2019-03-31T05:54:55.959Z,998.15
2019-03-31T05:55:55.950Z,998.26
2019-03-31T05:56:55.949Z,998.29
2019-03-31T05:57:55.950Z,998.26
2019-03-31T05:58:55.958Z,998.27
2019-03-31T05:59:55.906Z,998.27
2019-03-31T06:00:55.893Z,998.23
2019-03-31T06:01:55.898Z,998.24
2019-03-31T06:02:55.864Z,998.36
2019-03-31T06:03:55.883Z,998.37
2019-03-31T06:04:55.866Z,998.36
2019-03-31T06:05:55.855Z,998.33
2019-03-31T06:06:55.921Z,998.21
2019-03-31T06:07:55.847Z,998.28
2019-03-31T06:08:55.866Z,998.24
2019-03-31T06:09:55.800Z,998.35
2019-03-31T06:10:55.853Z,998.36
2019-03-31T06:11:55.797Z,998.32
2019-03-31T06:12:55.795Z,998.49
2019-03-31T06:13:55.831Z,998.43
2019-03-31T06:14:55.764Z,998.37
2019-03-31T06:15:55.766Z,998.47
2019-03-31T06:16:55.716Z,998.48
2019-03-31T06:17:55.721Z,998.54
2019-03-31T06:18:55.735Z,998.45
2019-03-31T06:19:55.685Z,998.55
2019-03-31T06:20:55.702Z,998.55
2019-03-31T06:21:55.675Z,998.52
2019-03-31T06:22:55.666Z,998.55
2019-03-31T06:23:55.675Z,998.52
2019-03-31T06:24:55.637Z,998.40
2019-03-31T06:25:55.662Z,998.39
2019-03-31T06:26:55.643Z,998.55
2019-03-31T06:27:55.631Z,998.53
2019-03-31T06:28:55.616Z,998.56
2019-03-31T06:29:55.582Z,998.58
2019-03-31T06:30:55.578Z,998.58
2019-03-31T06:31:55.562Z,998.60
2019-03-31T06:32:55.713Z,998.60
2019-03-31T06:33:55.560Z,998.59
2019-03-31T06:34:55.547Z,998.57
2019-03-31T06:35:55.549Z,998.58
2019-03-31T06:36:55.526Z,998.53
2019-03-31T06:37:55.500Z,998.58
2019-03-31T06:38:55.531Z,998.55
2019-03-31T06:39:55.472Z,998.58
2019-03-31T06:40:55.469Z,998.61
2019-03-31T06:41:55.469Z,998.64
2019-03-31T06:42:55.448Z,998.62
2019-03-31T06:43:55.464Z,998.70
2019-03-31T06:44:55.455Z,998.64
2019-03-31T06:45:55.431Z,998.71
2019-03-31T06:46:55.400Z,998.64
2019-03-31T06:47:55.397Z,998.73
2019-03-31T06:48:55.422Z,998.71
2019-03-31T06:49:55.360Z,998.74
2019-03-31T06:50:55.368Z,998.68
2019-03-31T06:51:55.346Z,998.68
2019-03-31T06:52:55.341Z,998.71
2019-03-31T06:53:55.336Z,998.74
2019-03-31T06:54:55.374Z,998.77
2019-03-31T06:55:55.296Z,998.74
2019-03-31T06:56:55.290Z,998.73
2019-03-31T06:57:55.301Z,998.75
2019-03-31T06:58:55.262Z,998.70
2019-03-31T06:59:55.302Z,998.76
2019-03-31T07:00:55.268Z,998.74
2019-03-31T07:01:55.259Z,998.77
2019-03-31T07:02:55.236Z,998.73
2019-03-31T07:03:55.244Z,998.80
2019-03-31T07:05:00.878Z,998.67
2019-03-31T07:05:56.211Z,998.75
2019-03-31T07:06:55.188Z,998.65
2019-03-31T07:07:55.208Z,998.75
2019-03-31T07:08:55.188Z,998.75
2019-03-31T07:09:55.180Z,998.77
2019-03-31T07:10:55.159Z,998.79
2019-03-31T07:11:55.172Z,998.77
2019-03-31T07:12:55.154Z,998.79
2019-03-31T07:13:55.144Z,998.77
2019-03-31T07:14:55.157Z,998.79
2019-03-31T07:15:55.122Z,998.74
2019-03-31T07:16:55.092Z,998.76
2019-03-31T07:17:55.086Z,998.74
2019-03-31T07:18:55.095Z,998.75
2019-03-31T07:19:55.093Z,998.79
2019-03-31T07:20:55.062Z,998.75
2019-03-31T07:21:55.062Z,998.77
2019-03-31T07:22:55.054Z,998.81
2019-03-31T07:23:55.044Z,998.79
2019-03-31T07:24:55.053Z,998.74
2019-03-31T07:25:55.038Z,998.77
2019-03-31T07:26:55.042Z,998.76
2019-03-31T07:27:54.990Z,998.74
2019-03-31T07:28:54.970Z,998.79
2019-03-31T07:29:55.042Z,998.77
2019-03-31T07:30:54.984Z,998.79
2019-03-31T07:31:54.966Z,998.80
2019-03-31T07:32:54.939Z,998.72
2019-03-31T07:33:54.943Z,998.86
2019-03-31T07:34:54.943Z,998.74
2019-03-31T07:35:54.947Z,998.78
2019-03-31T07:36:54.892Z,998.86
2019-03-31T07:37:54.890Z,998.84
2019-03-31T07:38:54.881Z,998.84
2019-03-31T07:39:55.080Z,998.80
2019-03-31T07:40:54.872Z,998.84
2019-03-31T07:41:55.181Z,998.93
2019-03-31T07:42:54.879Z,998.85
2019-03-31T07:43:54.820Z,998.83
2019-03-31T07:44:54.858Z,998.89
2019-03-31T07:45:55.933Z,998.91
2019-03-31T07:46:54.805Z,998.93
2019-03-31T07:47:54.795Z,998.96
2019-03-31T07:48:54.795Z,998.98
2019-03-31T07:49:54.802Z,999.04
2019-03-31T07:50:54.756Z,999.00
2019-03-31T07:51:54.739Z,999.05
2019-03-31T07:52:54.754Z,999.05
2019-03-31T07:53:54.751Z,999.10
2019-03-31T07:54:54.747Z,999.09
2019-03-31T07:55:54.751Z,999.15
2019-03-31T07:56:54.716Z,999.12
2019-03-31T07:57:54.765Z,999.17
2019-03-31T07:58:54.681Z,999.19
2019-03-31T07:59:56.567Z,999.15
2019-03-31T08:00:54.688Z,999.22
2019-03-31T08:01:54.662Z,999.15
2019-03-31T08:02:54.626Z,999.21
2019-03-31T08:03:54.639Z,999.19
2019-03-31T08:04:54.647Z,999.17
2019-03-31T08:05:54.605Z,999.21
2019-03-31T08:06:54.596Z,999.22
2019-03-31T08:07:54.582Z,999.25
2019-03-31T08:08:54.590Z,999.27
2019-03-31T08:09:54.622Z,999.29
2019-03-31T08:10:54.565Z,999.22
2019-03-31T08:11:54.554Z,999.28
2019-03-31T08:12:54.552Z,999.26
2019-03-31T08:13:55.413Z,999.25
2019-03-31T08:14:54.543Z,999.29
2019-03-31T08:15:54.557Z,999.30
2019-03-31T08:16:54.502Z,999.32
2019-03-31T08:17:54.518Z,999.32
2019-03-31T08:18:54.548Z,999.40
2019-03-31T08:19:54.476Z,999.32
2019-03-31T08:20:54.491Z,999.38
2019-03-31T08:21:54.480Z,999.39
2019-03-31T08:22:57.074Z,999.45
2019-03-31T08:23:54.445Z,999.47
2019-03-31T08:24:54.414Z,999.48
2019-03-31T08:25:54.463Z,999.39
2019-03-31T08:26:54.403Z,999.43
2019-03-31T08:27:54.400Z,999.42
2019-03-31T08:28:54.410Z,999.39
2019-03-31T08:30:00.434Z,999.39
2019-03-31T08:30:55.405Z,999.38
2019-03-31T08:31:54.343Z,999.43
2019-03-31T08:32:54.342Z,999.44
2019-03-31T08:33:54.350Z,999.40
2019-03-31T08:34:54.332Z,999.42
2019-03-31T08:35:54.349Z,999.44
2019-03-31T08:36:54.283Z,999.47
2019-03-31T08:37:54.333Z,999.42
2019-03-31T08:38:54.282Z,999.46
2019-03-31T08:39:54.267Z,999.46
2019-03-31T08:40:54.283Z,999.51
2019-03-31T08:41:54.263Z,999.44
2019-03-31T08:42:54.270Z,999.44
2019-03-31T08:43:54.214Z,999.47
2019-03-31T08:44:54.213Z,999.48
2019-03-31T08:45:54.258Z,999.48
2019-03-31T08:46:54.276Z,999.46
2019-03-31T08:47:54.206Z,999.47
2019-03-31T08:48:54.241Z,999.53
2019-03-31T08:49:54.201Z,999.48
2019-03-31T08:50:54.191Z,999.55
2019-03-31T08:51:54.158Z,999.53
2019-03-31T08:52:54.155Z,999.50
2019-03-31T08:53:54.161Z,999.53
2019-03-31T08:54:54.165Z,999.56
2019-03-31T08:55:54.146Z,999.66
2019-03-31T08:56:54.109Z,999.64
2019-03-31T08:57:54.100Z,999.67
2019-03-31T08:58:54.088Z,999.69
2019-03-31T08:59:54.094Z,999.70
2019-03-31T09:00:54.115Z,999.70
2019-03-31T09:01:54.085Z,999.69
2019-03-31T09:02:54.045Z,999.75
2019-03-31T09:03:54.052Z,999.70
2019-03-31T09:04:54.038Z,999.72
2019-03-31T09:06:01.726Z,999.72
2019-03-31T09:06:55.013Z,999.69
2019-03-31T09:07:54.041Z,999.73
2019-03-31T09:08:54.071Z,999.74
2019-03-31T09:09:53.975Z,999.74
2019-03-31T09:10:53.997Z,999.72
2019-03-31T09:11:53.972Z,999.82
2019-03-31T09:12:53.995Z,999.81
2019-03-31T09:13:53.954Z,999.70
2019-03-31T09:14:53.954Z,999.75
2019-03-31T09:15:53.947Z,999.73
2019-03-31T09:16:53.926Z,999.80
2019-03-31T09:17:54.314Z,999.78
2019-03-31T09:18:53.925Z,999.73
2019-03-31T09:19:53.874Z,999.72
2019-03-31T09:20:53.942Z,999.76
2019-03-31T09:21:53.880Z,999.78
2019-03-31T09:22:53.850Z,999.72
2019-03-31T09:23:53.846Z,999.76
2019-03-31T09:24:53.831Z,999.80
2019-03-31T09:25:53.847Z,999.86
2019-03-31T09:26:53.866Z,999.86
2019-03-31T09:27:53.803Z,999.82
2019-03-31T09:28:53.795Z,999.86
2019-03-31T09:29:53.799Z,999.82
2019-03-31T09:30:53.796Z,999.88
2019-03-31T09:31:53.807Z,999.82
2019-03-31T09:32:53.762Z,999.82
2019-03-31T09:33:53.738Z,999.87
2019-03-31T09:34:54.472Z,999.81
2019-03-31T09:35:53.754Z,999.82
2019-03-31T09:36:53.751Z,999.81
2019-03-31T09:37:53.706Z,999.88
2019-03-31T09:38:53.684Z,999.82
2019-03-31T09:39:53.677Z,999.72
2019-03-31T09:40:53.682Z,999.81
2019-03-31T09:41:53.688Z,999.89
2019-03-31T09:42:53.661Z,999.80
2019-03-31T09:43:53.662Z,999.78
2019-03-31T09:44:53.635Z,999.72
2019-03-31T09:45:53.646Z,999.77
2019-03-31T09:46:53.650Z,999.78
2019-03-31T09:47:53.629Z,999.71
2019-03-31T09:48:53.594Z,999.74
2019-03-31T09:49:53.592Z,999.80
2019-03-31T09:50:56.475Z,999.76
2019-03-31T09:51:53.603Z,999.80
2019-03-31T09:52:53.589Z,999.73
2019-03-31T09:53:53.551Z,999.72
2019-03-31T09:54:53.564Z,999.69
2019-03-31T09:55:53.529Z,999.79
2019-03-31T09:56:53.563Z,999.75
2019-03-31T09:57:53.504Z,999.73
2019-03-31T09:58:53.506Z,999.76
2019-03-31T09:59:53.471Z,999.76
2019-03-31T10:00:53.504Z,999.68
2019-03-31T10:01:53.509Z,999.67
2019-03-31T10:02:53.465Z,999.68
2019-03-31T10:03:53.476Z,999.76
2019-03-31T10:04:53.450Z,999.70
2019-03-31T10:05:53.419Z,999.72
2019-03-31T10:06:53.473Z,999.69
2019-03-31T10:07:53.435Z,999.73
2019-03-31T10:08:53.418Z,999.69
2019-03-31T10:09:53.390Z,999.75
2019-03-31T10:10:53.460Z,999.73
2019-03-31T10:11:53.393Z,999.68
2019-03-31T10:12:53.370Z,999.62
2019-03-31T10:13:53.352Z,999.69
2019-03-31T10:14:54.395Z,999.67
2019-03-31T10:15:53.351Z,999.72
2019-03-31T10:16:53.405Z,999.72
2019-03-31T10:17:53.304Z,999.67
2019-03-31T10:18:53.304Z,999.70
2019-03-31T10:19:53.297Z,999.74
2019-03-31T10:20:53.304Z,999.71
2019-03-31T10:21:53.313Z,999.69
2019-03-31T10:22:53.265Z,999.73
2019-03-31T10:23:53.287Z,999.76
2019-03-31T10:24:53.262Z,999.70
2019-03-31T10:25:53.255Z,999.69
2019-03-31T10:26:53.259Z,999.64
2019-03-31T10:27:53.235Z,999.64
2019-03-31T10:28:53.289Z,999.71
2019-03-31T10:29:53.245Z,999.65
2019-03-31T10:30:53.223Z,999.69
2019-03-31T10:31:53.185Z,999.68
2019-03-31T10:32:53.165Z,999.69
2019-03-31T10:33:53.206Z,999.66
2019-03-31T10:34:53.146Z,999.71
2019-03-31T10:35:53.111Z,999.63
2019-03-31T10:36:53.133Z,999.66
2019-03-31T10:37:53.149Z,999.65
2019-03-31T10:38:53.134Z,999.69
2019-03-31T10:39:53.092Z,999.64
2019-03-31T10:40:53.106Z,999.66
2019-03-31T10:41:53.093Z,999.61
2019-03-31T10:42:53.057Z,999.62
2019-03-31T10:43:53.054Z,999.52
2019-03-31T10:44:53.053Z,999.54
2019-03-31T10:45:53.021Z,999.52
2019-03-31T10:46:53.092Z,999.52
2019-03-31T10:47:53.014Z,999.52
2019-03-31T10:48:52.986Z,999.49
2019-03-31T10:49:52.978Z,999.51
2019-03-31T10:50:53.004Z,999.56
2019-03-31T10:51:53.024Z,999.47
2019-03-31T10:52:52.977Z,999.45
2019-03-31T10:53:52.939Z,999.49
2019-03-31T10:54:52.955Z,999.48
2019-03-31T10:55:52.925Z,999.45
2019-03-31T10:56:52.946Z,999.38
2019-03-31T10:57:52.934Z,999.41
2019-03-31T10:58:52.912Z,999.44
2019-03-31T10:59:52.862Z,999.42
2019-03-31T11:00:52.896Z,999.44
2019-03-31T11:01:52.862Z,999.49
2019-03-31T11:02:52.927Z,999.43
2019-03-31T11:03:52.846Z,999.39
2019-03-31T11:04:52.821Z,999.41
2019-03-31T11:05:52.825Z,999.40
2019-03-31T11:06:58.867Z,999.36
2019-03-31T11:07:53.852Z,999.32
2019-03-31T11:08:52.774Z,999.28
2019-03-31T11:09:52.791Z,999.31
2019-03-31T11:10:52.821Z,999.29
2019-03-31T11:11:52.809Z,999.31
2019-03-31T11:12:52.777Z,999.25
2019-03-31T11:13:52.719Z,999.23
2019-03-31T11:14:52.732Z,999.25
2019-03-31T11:15:52.731Z,999.26
2019-03-31T11:16:52.696Z,999.27
2019-03-31T11:17:52.714Z,999.20
2019-03-31T11:18:52.695Z,999.22
2019-03-31T11:19:52.667Z,999.20
2019-03-31T11:20:52.677Z,999.19
2019-03-31T11:21:52.666Z,999.23
2019-03-31T11:22:52.677Z,999.19
2019-03-31T11:23:52.639Z,999.23
2019-03-31T11:24:52.639Z,999.17
2019-03-31T11:25:52.633Z,999.18
2019-03-31T11:26:52.625Z,999.13
2019-03-31T11:27:52.639Z,999.17
2019-03-31T11:28:52.596Z,999.15
2019-03-31T11:29:52.583Z,999.23
2019-03-31T11:30:52.592Z,999.18
2019-03-31T11:31:52.568Z,999.21
2019-03-31T11:32:52.579Z,999.24
2019-03-31T11:33:52.539Z,999.18
2019-03-31T11:34:52.531Z,999.22
2019-03-31T11:35:52.498Z,999.17
2019-03-31T11:36:52.512Z,999.21
2019-03-31T11:37:52.527Z,999.15
2019-03-31T11:38:52.475Z,999.16
2019-03-31T11:39:52.483Z,999.16
2019-03-31T11:40:52.491Z,999.17
2019-03-31T11:41:52.445Z,999.14
2019-03-31T11:42:52.487Z,999.11
2019-03-31T11:43:52.434Z,999.18
2019-03-31T11:44:52.444Z,999.17
2019-03-31T11:45:52.396Z,999.13
2019-03-31T11:46:52.419Z,999.07
2019-03-31T11:47:52.443Z,999.14
2019-03-31T11:48:52.393Z,999.15
2019-03-31T11:49:52.365Z,999.12
2019-03-31T11:50:52.364Z,999.12
2019-03-31T11:51:52.412Z,999.04
2019-03-31T11:52:52.395Z,999.12
2019-03-31T11:53:52.682Z,999.07
2019-03-31T11:54:52.324Z,999.15
2019-03-31T11:55:52.295Z,999.11
2019-03-31T11:56:52.320Z,999.09
2019-03-31T11:57:52.305Z,999.04
2019-03-31T11:58:52.291Z,999.06
2019-03-31T11:59:52.312Z,999.05
2019-03-31T12:00:52.248Z,999.06
2019-03-31T12:01:52.304Z,998.97
2019-03-31T12:02:52.278Z,998.99
2019-03-31T12:03:52.234Z,999.04
2019-03-31T12:04:52.258Z,999.04
2019-03-31T12:05:52.194Z,999.03
2019-03-31T12:06:52.211Z,999.03
2019-03-31T12:07:52.205Z,999.01
2019-03-31T12:08:52.205Z,999.01
2019-03-31T12:09:52.158Z,998.99
2019-03-31T12:10:52.159Z,998.93
2019-03-31T12:11:52.139Z,999.03
2019-03-31T12:12:52.150Z,998.99
2019-03-31T12:13:52.129Z,998.98
2019-03-31T12:15:00.267Z,999.01
2019-03-31T12:15:53.089Z,999.03
2019-03-31T12:16:52.100Z,998.97
2019-03-31T12:17:52.142Z,999.03
2019-03-31T12:18:52.077Z,999.10
2019-03-31T12:19:52.088Z,999.05
2019-03-31T12:20:52.041Z,998.97
2019-03-31T12:21:52.052Z,999.00
2019-03-31T12:22:52.066Z,999.02
2019-03-31T12:23:52.044Z,999.07
2019-03-31T12:24:51.997Z,999.02
2019-03-31T12:25:52.019Z,998.97
2019-03-31T12:26:51.992Z,998.97
2019-03-31T12:27:52.038Z,999.04
2019-03-31T12:28:51.962Z,998.93